sensor_id;sensor_type;location;lat;lon;timestamp;temperature;humidity
21331;DHT22;10824;51.632;4.950;2023-12-07T00:00:05;1.00;99.90
21331;DHT22;10824;51.632;4.950;2023-12-07T00:02:32;0.90;99.90
21331;DHT22;10824;51.632;4.950;2023-12-07T00:04:59;0.80;99.90
21331;DHT22;10824;51.632;4.950;2023-12-07T00:07:26;0.70;99.90
21331;DHT22;10824;51.632;4.950;2023-12-07T00:09:54;0.70;99.90
21331;DHT22;10824;51.632;4.950;2023-12-07T00:12:21;0.80;99.90
21331;DHT22;10824;51.632;4.950;2023-12-07T00:14:48;0.70;99.90
21331;DHT22;10824;51.632;4.950;2023-12-07T00:17:15;0.70;99.90
21331;DHT22;10824;51.632;4.950;2023-12-07T00:19:42;0.60;99.90
21331;DHT22;10824;51.632;4.950;2023-12-07T00:22:10;0.60;99.90
21331;DHT22;10824;51.632;4.950;2023-12-07T00:24:37;0.50;99.90
21331;DHT22;10824;51.632;4.950;2023-12-07T00:27:04;0.60;99.90
21331;DHT22;10824;51.632;4.950;2023-12-07T00:29:32;0.60;99.90
21331;DHT22;10824;51.632;4.950;2023-12-07T00:31:59;0.60;99.90
21331;DHT22;10824;51.632;4.950;2023-12-07T00:34:27;0.60;99.90
21331;DHT22;10824;51.632;4.950;2023-12-07T00:36:55;0.60;99.90
21331;DHT22;10824;51.632;4.950;2023-12-07T00:39:22;0.60;99.90
21331;DHT22;10824;51.632;4.950;2023-12-07T00:41:49;0.70;99.90
21331;DHT22;10824;51.632;4.950;2023-12-07T00:44:16;0.70;99.90
21331;DHT22;10824;51.632;4.950;2023-12-07T00:46:43;0.70;99.90
21331;DHT22;10824;51.632;4.950;2023-12-07T00:49:10;0.70;99.90
21331;DHT22;10824;51.632;4.950;2023-12-07T00:51:38;0.50;99.90
21331;DHT22;10824;51.632;4.950;2023-12-07T00:54:05;0.50;99.90
21331;DHT22;10824;51.632;4.950;2023-12-07T00:56:32;0.50;99.90
21331;DHT22;10824;51.632;4.950;2023-12-07T00:58:59;0.50;99.90
21331;DHT22;10824;51.632;4.950;2023-12-07T01:01:27;0.40;99.90
21331;DHT22;10824;51.632;4.950;2023-12-07T01:03:55;0.40;99.90
21331;DHT22;10824;51.632;4.950;2023-12-07T01:06:22;0.40;99.90
21331;DHT22;10824;51.632;4.950;2023-12-07T01:08:49;0.30;99.90
21331;DHT22;10824;51.632;4.950;2023-12-07T01:11:16;0.30;99.90
21331;DHT22;10824;51.632;4.950;2023-12-07T01:13:43;0.30;99.90
21331;DHT22;10824;51.632;4.950;2023-12-07T01:16:10;0.30;99.90
21331;DHT22;10824;51.632;4.950;2023-12-07T01:18:38;0.20;99.90
21331;DHT22;10824;51.632;4.950;2023-12-07T01:21:05;0.10;99.90
21331;DHT22;10824;51.632;4.950;2023-12-07T01:23:33;0.10;99.90
21331;DHT22;10824;51.632;4.950;2023-12-07T01:26:00;0.10;99.90
21331;DHT22;10824;51.632;4.950;2023-12-07T01:28:29;0.00;99.90
21331;DHT22;10824;51.632;4.950;2023-12-07T01:30:56;0.10;99.90
21331;DHT22;10824;51.632;4.950;2023-12-07T01:33:24;0.20;99.90
21331;DHT22;10824;51.632;4.950;2023-12-07T01:35:51;0.20;99.90
21331;DHT22;10824;51.632;4.950;2023-12-07T01:38:18;0.20;99.90
21331;DHT22;10824;51.632;4.950;2023-12-07T01:40:46;0.10;99.90
21331;DHT22;10824;51.632;4.950;2023-12-07T01:43:13;0.10;99.90
21331;DHT22;10824;51.632;4.950;2023-12-07T01:45:40;0.00;99.90
21331;DHT22;10824;51.632;4.950;2023-12-07T01:48:08;0.00;99.90
21331;DHT22;10824;51.632;4.950;2023-12-07T01:50:35;-0.10;99.90
21331;DHT22;10824;51.632;4.950;2023-12-07T01:53:04;0.00;99.90
21331;DHT22;10824;51.632;4.950;2023-12-07T01:55:35;0.00;99.90
21331;DHT22;10824;51.632;4.950;2023-12-07T01:58:04;0.00;99.90
21331;DHT22;10824;51.632;4.950;2023-12-07T02:00:33;-0.10;99.90
21331;DHT22;10824;51.632;4.950;2023-12-07T02:03:04;-0.10;99.90
21331;DHT22;10824;51.632;4.950;2023-12-07T02:05:33;0.00;99.90
21331;DHT22;10824;51.632;4.950;2023-12-07T02:08:00;0.10;99.90
21331;DHT22;10824;51.632;4.950;2023-12-07T02:10:28;0.20;99.90
21331;DHT22;10824;51.632;4.950;2023-12-07T02:12:55;0.00;99.90
21331;DHT22;10824;51.632;4.950;2023-12-07T02:15:22;0.10;99.90
21331;DHT22;10824;51.632;4.950;2023-12-07T02:18:13;0.10;99.90
21331;DHT22;10824;51.632;4.950;2023-12-07T02:20:55;0.30;99.90
21331;DHT22;10824;51.632;4.950;2023-12-07T02:23:25;0.50;99.90
21331;DHT22;10824;51.632;4.950;2023-12-07T02:26:13;0.60;99.90
21331;DHT22;10824;51.632;4.950;2023-12-07T02:28:45;0.60;99.90
21331;DHT22;10824;51.632;4.950;2023-12-07T02:31:12;0.60;99.90
21331;DHT22;10824;51.632;4.950;2023-12-07T02:33:40;0.70;99.90
21331;DHT22;10824;51.632;4.950;2023-12-07T02:36:07;0.80;99.90
21331;DHT22;10824;51.632;4.950;2023-12-07T02:38:35;0.80;99.90
21331;DHT22;10824;51.632;4.950;2023-12-07T02:41:03;0.80;99.90
21331;DHT22;10824;51.632;4.950;2023-12-07T02:43:31;0.80;99.90
21331;DHT22;10824;51.632;4.950;2023-12-07T02:45:58;0.80;99.90
21331;DHT22;10824;51.632;4.950;2023-12-07T02:48:26;0.80;99.90
21331;DHT22;10824;51.632;4.950;2023-12-07T02:50:53;0.80;99.90
21331;DHT22;10824;51.632;4.950;2023-12-07T02:53:20;0.80;99.90
21331;DHT22;10824;51.632;4.950;2023-12-07T02:55:47;0.80;99.90
21331;DHT22;10824;51.632;4.950;2023-12-07T02:58:15;0.70;99.90
21331;DHT22;10824;51.632;4.950;2023-12-07T03:00:42;0.70;99.90
21331;DHT22;10824;51.632;4.950;2023-12-07T03:03:09;0.80;99.90
21331;DHT22;10824;51.632;4.950;2023-12-07T03:05:36;0.80;99.90
21331;DHT22;10824;51.632;4.950;2023-12-07T03:08:03;0.80;99.90
21331;DHT22;10824;51.632;4.950;2023-12-07T03:10:30;0.70;99.90
21331;DHT22;10824;51.632;4.950;2023-12-07T03:12:58;0.80;99.90
21331;DHT22;10824;51.632;4.950;2023-12-07T03:15:25;0.70;99.90
21331;DHT22;10824;51.632;4.950;2023-12-07T03:17:53;0.60;99.90
21331;DHT22;10824;51.632;4.950;2023-12-07T03:20:20;0.60;99.90
21331;DHT22;10824;51.632;4.950;2023-12-07T03:22:47;0.60;99.90
21331;DHT22;10824;51.632;4.950;2023-12-07T03:25:15;0.60;99.90
21331;DHT22;10824;51.632;4.950;2023-12-07T03:27:42;0.60;99.90
21331;DHT22;10824;51.632;4.950;2023-12-07T03:30:09;0.60;99.90
21331;DHT22;10824;51.632;4.950;2023-12-07T03:32:37;0.60;99.90
21331;DHT22;10824;51.632;4.950;2023-12-07T03:35:04;0.70;99.90
21331;DHT22;10824;51.632;4.950;2023-12-07T03:37:32;0.60;99.90
21331;DHT22;10824;51.632;4.950;2023-12-07T03:39:59;0.60;99.90
21331;DHT22;10824;51.632;4.950;2023-12-07T03:42:26;0.50;99.90
21331;DHT22;10824;51.632;4.950;2023-12-07T03:45:13;0.50;99.90
21331;DHT22;10824;51.632;4.950;2023-12-07T03:47:40;0.60;99.90
21331;DHT22;10824;51.632;4.950;2023-12-07T03:50:08;0.60;99.90
21331;DHT22;10824;51.632;4.950;2023-12-07T03:52:35;0.70;99.90
21331;DHT22;10824;51.632;4.950;2023-12-07T03:55:02;0.60;99.90
21331;DHT22;10824;51.632;4.950;2023-12-07T03:57:29;0.60;99.90
21331;DHT22;10824;51.632;4.950;2023-12-07T03:59:57;0.60;99.90
21331;DHT22;10824;51.632;4.950;2023-12-07T04:02:24;0.60;99.90
21331;DHT22;10824;51.632;4.950;2023-12-07T04:04:52;0.50;99.90
21331;DHT22;10824;51.632;4.950;2023-12-07T04:07:19;0.60;99.90
21331;DHT22;10824;51.632;4.950;2023-12-07T04:09:46;0.60;99.90
21331;DHT22;10824;51.632;4.950;2023-12-07T04:12:14;0.60;99.90
21331;DHT22;10824;51.632;4.950;2023-12-07T04:14:41;0.70;99.90
21331;DHT22;10824;51.632;4.950;2023-12-07T04:17:08;0.60;99.90
21331;DHT22;10824;51.632;4.950;2023-12-07T04:19:35;0.70;99.90
21331;DHT22;10824;51.632;4.950;2023-12-07T04:22:03;0.60;99.90
21331;DHT22;10824;51.632;4.950;2023-12-07T04:24:30;0.60;99.90
21331;DHT22;10824;51.632;4.950;2023-12-07T04:26:57;0.60;99.90
21331;DHT22;10824;51.632;4.950;2023-12-07T04:29:24;0.70;99.90
21331;DHT22;10824;51.632;4.950;2023-12-07T04:31:51;0.80;99.90
21331;DHT22;10824;51.632;4.950;2023-12-07T04:34:18;0.70;99.90
21331;DHT22;10824;51.632;4.950;2023-12-07T04:36:46;0.70;99.90
21331;DHT22;10824;51.632;4.950;2023-12-07T04:39:13;0.70;99.90
21331;DHT22;10824;51.632;4.950;2023-12-07T04:41:40;0.70;99.90
21331;DHT22;10824;51.632;4.950;2023-12-07T04:44:07;0.80;99.90
21331;DHT22;10824;51.632;4.950;2023-12-07T04:46:34;0.80;99.90
21331;DHT22;10824;51.632;4.950;2023-12-07T04:49:03;0.80;99.90
21331;DHT22;10824;51.632;4.950;2023-12-07T04:51:31;0.70;99.90
21331;DHT22;10824;51.632;4.950;2023-12-07T04:53:58;0.70;99.90
21331;DHT22;10824;51.632;4.950;2023-12-07T04:56:41;0.70;99.90
21331;DHT22;10824;51.632;4.950;2023-12-07T04:59:14;0.70;99.90
21331;DHT22;10824;51.632;4.950;2023-12-07T05:01:42;0.80;99.90
21331;DHT22;10824;51.632;4.950;2023-12-07T05:04:09;0.70;99.90
21331;DHT22;10824;51.632;4.950;2023-12-07T05:06:36;0.70;99.90
21331;DHT22;10824;51.632;4.950;2023-12-07T05:09:03;0.60;99.90
21331;DHT22;10824;51.632;4.950;2023-12-07T05:11:30;0.70;99.90
21331;DHT22;10824;51.632;4.950;2023-12-07T05:13:58;0.60;99.90
21331;DHT22;10824;51.632;4.950;2023-12-07T05:16:25;0.60;99.90
21331;DHT22;10824;51.632;4.950;2023-12-07T05:18:52;0.70;99.90
21331;DHT22;10824;51.632;4.950;2023-12-07T05:21:20;0.70;99.90
21331;DHT22;10824;51.632;4.950;2023-12-07T05:23:47;0.70;99.90
21331;DHT22;10824;51.632;4.950;2023-12-07T05:26:15;0.70;99.90
21331;DHT22;10824;51.632;4.950;2023-12-07T05:28:42;0.70;99.90
21331;DHT22;10824;51.632;4.950;2023-12-07T05:31:16;0.80;99.90
21331;DHT22;10824;51.632;4.950;2023-12-07T05:33:44;0.80;99.90
21331;DHT22;10824;51.632;4.950;2023-12-07T05:36:11;0.80;99.90
21331;DHT22;10824;51.632;4.950;2023-12-07T05:38:39;0.80;99.90
21331;DHT22;10824;51.632;4.950;2023-12-07T05:41:06;0.80;99.90
21331;DHT22;10824;51.632;4.950;2023-12-07T05:43:33;0.80;99.90
21331;DHT22;10824;51.632;4.950;2023-12-07T05:46:00;0.80;99.90
21331;DHT22;10824;51.632;4.950;2023-12-07T05:48:28;0.80;99.90
21331;DHT22;10824;51.632;4.950;2023-12-07T05:50:55;0.80;99.90
21331;DHT22;10824;51.632;4.950;2023-12-07T05:53:23;0.80;99.90
21331;DHT22;10824;51.632;4.950;2023-12-07T05:55:51;0.80;99.90
21331;DHT22;10824;51.632;4.950;2023-12-07T05:58:18;0.80;99.90
21331;DHT22;10824;51.632;4.950;2023-12-07T06:00:45;0.90;99.90
21331;DHT22;10824;51.632;4.950;2023-12-07T06:03:14;0.90;99.90
21331;DHT22;10824;51.632;4.950;2023-12-07T06:05:42;0.90;99.90
21331;DHT22;10824;51.632;4.950;2023-12-07T06:08:13;0.90;99.90
21331;DHT22;10824;51.632;4.950;2023-12-07T06:10:40;0.90;99.90
21331;DHT22;10824;51.632;4.950;2023-12-07T06:13:07;0.90;99.90
21331;DHT22;10824;51.632;4.950;2023-12-07T06:15:34;0.90;99.90
21331;DHT22;10824;51.632;4.950;2023-12-07T06:18:01;0.90;99.90
21331;DHT22;10824;51.632;4.950;2023-12-07T06:20:29;0.90;99.90
21331;DHT22;10824;51.632;4.950;2023-12-07T06:22:56;0.90;99.90
21331;DHT22;10824;51.632;4.950;2023-12-07T06:25:26;0.90;99.90
21331;DHT22;10824;51.632;4.950;2023-12-07T06:27:53;1.00;99.90
21331;DHT22;10824;51.632;4.950;2023-12-07T06:30:20;1.00;99.90
21331;DHT22;10824;51.632;4.950;2023-12-07T06:32:47;1.00;99.90
21331;DHT22;10824;51.632;4.950;2023-12-07T06:35:14;1.10;99.90
21331;DHT22;10824;51.632;4.950;2023-12-07T06:37:43;1.10;99.90
21331;DHT22;10824;51.632;4.950;2023-12-07T06:40:10;1.10;99.90
21331;DHT22;10824;51.632;4.950;2023-12-07T06:42:37;1.10;99.90
21331;DHT22;10824;51.632;4.950;2023-12-07T06:45:05;1.10;99.90
21331;DHT22;10824;51.632;4.950;2023-12-07T06:47:37;1.20;99.90
21331;DHT22;10824;51.632;4.950;2023-12-07T06:50:06;1.20;99.90
21331;DHT22;10824;51.632;4.950;2023-12-07T06:52:37;1.20;99.90
21331;DHT22;10824;51.632;4.950;2023-12-07T06:55:05;1.20;99.90
21331;DHT22;10824;51.632;4.950;2023-12-07T06:57:33;1.30;99.90
21331;DHT22;10824;51.632;4.950;2023-12-07T07:00:00;1.30;99.90
21331;DHT22;10824;51.632;4.950;2023-12-07T07:02:28;1.30;99.90
21331;DHT22;10824;51.632;4.950;2023-12-07T07:04:55;1.30;99.90
21331;DHT22;10824;51.632;4.950;2023-12-07T07:07:22;1.40;99.90
21331;DHT22;10824;51.632;4.950;2023-12-07T07:09:50;1.30;99.90
21331;DHT22;10824;51.632;4.950;2023-12-07T07:12:17;1.40;99.90
21331;DHT22;10824;51.632;4.950;2023-12-07T07:14:44;1.40;99.90
21331;DHT22;10824;51.632;4.950;2023-12-07T07:17:11;1.40;99.90
21331;DHT22;10824;51.632;4.950;2023-12-07T07:19:38;1.40;99.90
21331;DHT22;10824;51.632;4.950;2023-12-07T07:22:08;1.40;99.90
21331;DHT22;10824;51.632;4.950;2023-12-07T07:24:36;1.40;99.90
21331;DHT22;10824;51.632;4.950;2023-12-07T07:27:03;1.50;99.90
21331;DHT22;10824;51.632;4.950;2023-12-07T07:29:30;1.40;99.90
21331;DHT22;10824;51.632;4.950;2023-12-07T07:31:59;1.50;99.90
21331;DHT22;10824;51.632;4.950;2023-12-07T07:34:26;1.50;99.90
21331;DHT22;10824;51.632;4.950;2023-12-07T07:36:54;1.50;99.90
21331;DHT22;10824;51.632;4.950;2023-12-07T07:39:25;1.50;99.90
21331;DHT22;10824;51.632;4.950;2023-12-07T07:41:52;1.50;99.90
21331;DHT22;10824;51.632;4.950;2023-12-07T07:44:22;1.40;99.90
21331;DHT22;10824;51.632;4.950;2023-12-07T07:46:49;1.50;99.90
21331;DHT22;10824;51.632;4.950;2023-12-07T07:49:16;1.50;99.90
21331;DHT22;10824;51.632;4.950;2023-12-07T07:51:43;1.50;99.90
21331;DHT22;10824;51.632;4.950;2023-12-07T07:54:10;1.50;99.90
21331;DHT22;10824;51.632;4.950;2023-12-07T07:56:38;1.40;99.90
21331;DHT22;10824;51.632;4.950;2023-12-07T07:59:05;1.50;99.90
21331;DHT22;10824;51.632;4.950;2023-12-07T08:01:32;1.40;99.90
21331;DHT22;10824;51.632;4.950;2023-12-07T08:03:59;1.40;99.90
21331;DHT22;10824;51.632;4.950;2023-12-07T08:06:26;1.40;99.90
21331;DHT22;10824;51.632;4.950;2023-12-07T08:08:53;1.40;99.90
21331;DHT22;10824;51.632;4.950;2023-12-07T08:11:20;1.50;99.90
21331;DHT22;10824;51.632;4.950;2023-12-07T08:13:47;1.50;99.90
21331;DHT22;10824;51.632;4.950;2023-12-07T08:16:15;1.50;99.90
21331;DHT22;10824;51.632;4.950;2023-12-07T08:18:42;1.50;99.90
21331;DHT22;10824;51.632;4.950;2023-12-07T08:21:09;1.50;99.90
21331;DHT22;10824;51.632;4.950;2023-12-07T08:23:36;1.50;99.90
21331;DHT22;10824;51.632;4.950;2023-12-07T08:26:03;1.60;99.90
21331;DHT22;10824;51.632;4.950;2023-12-07T08:28:30;1.60;99.90
21331;DHT22;10824;51.632;4.950;2023-12-07T08:30:57;1.60;99.90
21331;DHT22;10824;51.632;4.950;2023-12-07T08:33:25;1.60;99.90
21331;DHT22;10824;51.632;4.950;2023-12-07T08:35:52;1.60;99.90
21331;DHT22;10824;51.632;4.950;2023-12-07T08:38:22;1.60;99.90
21331;DHT22;10824;51.632;4.950;2023-12-07T08:40:49;1.60;99.90
21331;DHT22;10824;51.632;4.950;2023-12-07T08:43:19;1.60;99.90
21331;DHT22;10824;51.632;4.950;2023-12-07T08:45:46;1.70;99.90
21331;DHT22;10824;51.632;4.950;2023-12-07T08:48:13;1.70;99.90
21331;DHT22;10824;51.632;4.950;2023-12-07T08:50:40;1.60;99.90
21331;DHT22;10824;51.632;4.950;2023-12-07T08:53:07;1.70;99.90
21331;DHT22;10824;51.632;4.950;2023-12-07T08:55:34;1.70;99.90
21331;DHT22;10824;51.632;4.950;2023-12-07T08:58:02;1.80;99.90
21331;DHT22;10824;51.632;4.950;2023-12-07T09:00:32;1.70;99.90
21331;DHT22;10824;51.632;4.950;2023-12-07T09:02:59;1.70;99.90
21331;DHT22;10824;51.632;4.950;2023-12-07T09:05:28;1.70;99.90
21331;DHT22;10824;51.632;4.950;2023-12-07T09:07:57;1.80;99.90
21331;DHT22;10824;51.632;4.950;2023-12-07T09:10:24;1.80;99.90
21331;DHT22;10824;51.632;4.950;2023-12-07T09:12:51;1.80;99.90
21331;DHT22;10824;51.632;4.950;2023-12-07T09:15:18;1.80;99.90
21331;DHT22;10824;51.632;4.950;2023-12-07T09:17:45;1.80;99.90
21331;DHT22;10824;51.632;4.950;2023-12-07T09:20:12;1.80;99.90
21331;DHT22;10824;51.632;4.950;2023-12-07T09:22:45;1.80;99.90
21331;DHT22;10824;51.632;4.950;2023-12-07T09:25:15;1.90;99.90
21331;DHT22;10824;51.632;4.950;2023-12-07T09:27:43;1.90;99.90
21331;DHT22;10824;51.632;4.950;2023-12-07T09:30:10;1.90;99.90
21331;DHT22;10824;51.632;4.950;2023-12-07T09:32:42;1.80;99.90
21331;DHT22;10824;51.632;4.950;2023-12-07T09:35:12;1.80;99.90
21331;DHT22;10824;51.632;4.950;2023-12-07T09:37:46;1.90;99.90
21331;DHT22;10824;51.632;4.950;2023-12-07T09:40:17;1.90;99.90
21331;DHT22;10824;51.632;4.950;2023-12-07T09:42:46;1.90;99.90
21331;DHT22;10824;51.632;4.950;2023-12-07T09:45:15;1.90;99.90
21331;DHT22;10824;51.632;4.950;2023-12-07T09:47:51;2.00;99.90
21331;DHT22;10824;51.632;4.950;2023-12-07T09:50:23;2.00;99.90
21331;DHT22;10824;51.632;4.950;2023-12-07T09:52:52;2.00;99.90
21331;DHT22;10824;51.632;4.950;2023-12-07T09:55:33;2.10;99.90
21331;DHT22;10824;51.632;4.950;2023-12-07T09:58:03;2.20;99.90
21331;DHT22;10824;51.632;4.950;2023-12-07T10:00:33;2.20;99.90
21331;DHT22;10824;51.632;4.950;2023-12-07T10:03:01;2.10;99.90
21331;DHT22;10824;51.632;4.950;2023-12-07T10:05:29;2.30;99.90
21331;DHT22;10824;51.632;4.950;2023-12-07T10:07:56;2.20;99.90
21331;DHT22;10824;51.632;4.950;2023-12-07T10:10:23;2.20;99.90
21331;DHT22;10824;51.632;4.950;2023-12-07T10:12:52;2.20;99.90
21331;DHT22;10824;51.632;4.950;2023-12-07T10:15:21;2.30;99.90
21331;DHT22;10824;51.632;4.950;2023-12-07T10:17:52;2.30;99.90
21331;DHT22;10824;51.632;4.950;2023-12-07T10:20:21;2.40;99.90
21331;DHT22;10824;51.632;4.950;2023-12-07T10:23:07;2.40;99.90
21331;DHT22;10824;51.632;4.950;2023-12-07T10:25:40;2.40;99.90
21331;DHT22;10824;51.632;4.950;2023-12-07T10:28:11;2.40;99.90
21331;DHT22;10824;51.632;4.950;2023-12-07T10:30:40;2.50;99.90
21331;DHT22;10824;51.632;4.950;2023-12-07T10:33:10;2.40;99.90
21331;DHT22;10824;51.632;4.950;2023-12-07T10:35:40;2.50;99.90
21331;DHT22;10824;51.632;4.950;2023-12-07T10:38:11;2.50;99.90
21331;DHT22;10824;51.632;4.950;2023-12-07T10:40:41;2.50;99.90
21331;DHT22;10824;51.632;4.950;2023-12-07T10:43:09;2.60;99.90
21331;DHT22;10824;51.632;4.950;2023-12-07T10:45:36;2.70;99.90
21331;DHT22;10824;51.632;4.950;2023-12-07T10:48:05;2.70;99.90
21331;DHT22;10824;51.632;4.950;2023-12-07T10:50:35;2.70;99.90
21331;DHT22;10824;51.632;4.950;2023-12-07T10:53:27;2.70;99.90
21331;DHT22;10824;51.632;4.950;2023-12-07T10:55:59;2.70;99.90
21331;DHT22;10824;51.632;4.950;2023-12-07T10:58:26;2.80;99.90
21331;DHT22;10824;51.632;4.950;2023-12-07T11:00:56;2.90;99.90
21331;DHT22;10824;51.632;4.950;2023-12-07T11:03:24;2.90;99.90
21331;DHT22;10824;51.632;4.950;2023-12-07T11:05:52;3.00;99.90
21331;DHT22;10824;51.632;4.950;2023-12-07T11:11:04;2.90;99.90
21331;DHT22;10824;51.632;4.950;2023-12-07T11:13:36;3.00;99.90
21331;DHT22;10824;51.632;4.950;2023-12-07T11:16:04;3.00;99.90
21331;DHT22;10824;51.632;4.950;2023-12-07T11:18:35;3.00;99.90
21331;DHT22;10824;51.632;4.950;2023-12-07T11:21:03;3.00;99.90
21331;DHT22;10824;51.632;4.950;2023-12-07T11:23:34;3.00;99.90
21331;DHT22;10824;51.632;4.950;2023-12-07T11:26:03;2.90;99.90
21331;DHT22;10824;51.632;4.950;2023-12-07T11:28:38;2.90;99.90
21331;DHT22;10824;51.632;4.950;2023-12-07T11:31:08;3.00;99.90
21331;DHT22;10824;51.632;4.950;2023-12-07T11:33:39;3.10;99.90
21331;DHT22;10824;51.632;4.950;2023-12-07T11:36:10;3.20;99.90
21331;DHT22;10824;51.632;4.950;2023-12-07T11:41:44;3.40;99.90
21331;DHT22;10824;51.632;4.950;2023-12-07T11:44:11;3.40;99.90
21331;DHT22;10824;51.632;4.950;2023-12-07T11:46:39;3.50;99.90
21331;DHT22;10824;51.632;4.950;2023-12-07T11:49:07;3.60;99.90
21331;DHT22;10824;51.632;4.950;2023-12-07T11:51:54;3.60;99.90
21331;DHT22;10824;51.632;4.950;2023-12-07T11:54:22;3.70;99.90
21331;DHT22;10824;51.632;4.950;2023-12-07T11:56:57;3.80;99.90
21331;DHT22;10824;51.632;4.950;2023-12-07T11:59:24;3.80;99.90
21331;DHT22;10824;51.632;4.950;2023-12-07T12:02:01;3.90;99.90
21331;DHT22;10824;51.632;4.950;2023-12-07T12:04:31;3.80;99.90
21331;DHT22;10824;51.632;4.950;2023-12-07T12:06:58;3.90;99.90
21331;DHT22;10824;51.632;4.950;2023-12-07T12:09:25;3.90;99.90
21331;DHT22;10824;51.632;4.950;2023-12-07T12:11:59;3.90;99.90
21331;DHT22;10824;51.632;4.950;2023-12-07T12:14:29;3.90;99.90
21331;DHT22;10824;51.632;4.950;2023-12-07T12:16:57;3.90;99.90
21331;DHT22;10824;51.632;4.950;2023-12-07T12:19:25;3.80;99.90
21331;DHT22;10824;51.632;4.950;2023-12-07T12:22:03;3.80;99.90
21331;DHT22;10824;51.632;4.950;2023-12-07T12:24:37;3.80;99.90
21331;DHT22;10824;51.632;4.950;2023-12-07T12:27:07;3.80;99.90
21331;DHT22;10824;51.632;4.950;2023-12-07T12:29:35;3.90;99.90
21331;DHT22;10824;51.632;4.950;2023-12-07T12:32:03;3.80;99.90
21331;DHT22;10824;51.632;4.950;2023-12-07T12:34:33;3.80;99.90
21331;DHT22;10824;51.632;4.950;2023-12-07T12:37:02;3.90;99.90
21331;DHT22;10824;51.632;4.950;2023-12-07T12:39:33;3.90;99.90
21331;DHT22;10824;51.632;4.950;2023-12-07T12:42:02;3.90;99.90
21331;DHT22;10824;51.632;4.950;2023-12-07T12:44:31;3.90;99.90
21331;DHT22;10824;51.632;4.950;2023-12-07T12:47:07;3.90;99.90
21331;DHT22;10824;51.632;4.950;2023-12-07T12:49:41;3.90;99.90
21331;DHT22;10824;51.632;4.950;2023-12-07T12:52:14;3.80;99.90
21331;DHT22;10824;51.632;4.950;2023-12-07T12:54:44;3.80;99.90
21331;DHT22;10824;51.632;4.950;2023-12-07T12:57:11;3.80;99.90
21331;DHT22;10824;51.632;4.950;2023-12-07T12:59:38;3.80;99.90
21331;DHT22;10824;51.632;4.950;2023-12-07T13:02:06;3.90;99.90
21331;DHT22;10824;51.632;4.950;2023-12-07T13:04:38;3.90;99.90
21331;DHT22;10824;51.632;4.950;2023-12-07T13:07:09;3.90;99.90
21331;DHT22;10824;51.632;4.950;2023-12-07T13:09:36;3.90;99.90
21331;DHT22;10824;51.632;4.950;2023-12-07T13:12:03;4.00;99.90
21331;DHT22;10824;51.632;4.950;2023-12-07T13:14:32;4.00;99.90
21331;DHT22;10824;51.632;4.950;2023-12-07T13:17:06;4.00;99.90
21331;DHT22;10824;51.632;4.950;2023-12-07T13:19:35;4.10;99.90
21331;DHT22;10824;51.632;4.950;2023-12-07T13:22:02;4.10;99.90
21331;DHT22;10824;51.632;4.950;2023-12-07T13:24:33;4.10;99.90
21331;DHT22;10824;51.632;4.950;2023-12-07T13:27:00;4.10;99.90
21331;DHT22;10824;51.632;4.950;2023-12-07T13:29:28;4.10;99.90
21331;DHT22;10824;51.632;4.950;2023-12-07T13:32:04;4.10;99.90
21331;DHT22;10824;51.632;4.950;2023-12-07T13:34:31;4.10;99.90
21331;DHT22;10824;51.632;4.950;2023-12-07T13:36:59;4.10;99.90
21331;DHT22;10824;51.632;4.950;2023-12-07T13:39:26;4.20;99.90
21331;DHT22;10824;51.632;4.950;2023-12-07T13:41:58;4.20;99.90
21331;DHT22;10824;51.632;4.950;2023-12-07T13:44:28;4.20;99.90
21331;DHT22;10824;51.632;4.950;2023-12-07T13:46:55;4.10;99.90
21331;DHT22;10824;51.632;4.950;2023-12-07T13:49:26;4.10;99.90
21331;DHT22;10824;51.632;4.950;2023-12-07T13:52:03;4.20;99.90
21331;DHT22;10824;51.632;4.950;2023-12-07T13:54:38;4.20;99.90
21331;DHT22;10824;51.632;4.950;2023-12-07T13:57:21;4.10;99.90
21331;DHT22;10824;51.632;4.950;2023-12-07T13:59:53;4.10;99.90
21331;DHT22;10824;51.632;4.950;2023-12-07T14:02:21;4.10;99.90
21331;DHT22;10824;51.632;4.950;2023-12-07T14:04:49;4.10;99.90
21331;DHT22;10824;51.632;4.950;2023-12-07T14:07:19;4.00;99.90
21331;DHT22;10824;51.632;4.950;2023-12-07T14:09:49;4.00;99.90
21331;DHT22;10824;51.632;4.950;2023-12-07T14:12:25;4.00;99.90
21331;DHT22;10824;51.632;4.950;2023-12-07T14:14:54;4.00;99.90
21331;DHT22;10824;51.632;4.950;2023-12-07T14:17:22;4.00;99.90
21331;DHT22;10824;51.632;4.950;2023-12-07T14:20:04;3.90;99.90
21331;DHT22;10824;51.632;4.950;2023-12-07T14:22:54;3.90;99.90
21331;DHT22;10824;51.632;4.950;2023-12-07T14:25:22;3.80;99.90
21331;DHT22;10824;51.632;4.950;2023-12-07T14:27:49;3.80;99.90
21331;DHT22;10824;51.632;4.950;2023-12-07T14:30:20;3.80;99.90
21331;DHT22;10824;51.632;4.950;2023-12-07T14:32:48;3.80;99.90
21331;DHT22;10824;51.632;4.950;2023-12-07T14:35:19;3.80;99.90
21331;DHT22;10824;51.632;4.950;2023-12-07T14:37:47;3.70;99.90
21331;DHT22;10824;51.632;4.950;2023-12-07T14:40:15;3.80;99.90
21331;DHT22;10824;51.632;4.950;2023-12-07T14:42:45;3.70;99.90
21331;DHT22;10824;51.632;4.950;2023-12-07T14:45:13;3.70;99.90
21331;DHT22;10824;51.632;4.950;2023-12-07T14:47:42;3.70;99.90
21331;DHT22;10824;51.632;4.950;2023-12-07T14:50:10;3.70;99.90
21331;DHT22;10824;51.632;4.950;2023-12-07T14:52:37;3.70;99.90
21331;DHT22;10824;51.632;4.950;2023-12-07T14:55:05;3.60;99.90
21331;DHT22;10824;51.632;4.950;2023-12-07T14:57:32;3.60;99.90
21331;DHT22;10824;51.632;4.950;2023-12-07T15:00:00;3.60;99.90
21331;DHT22;10824;51.632;4.950;2023-12-07T15:02:27;3.60;99.90
21331;DHT22;10824;51.632;4.950;2023-12-07T15:04:55;3.50;99.90
21331;DHT22;10824;51.632;4.950;2023-12-07T15:07:22;3.50;99.90
21331;DHT22;10824;51.632;4.950;2023-12-07T15:09:49;3.50;99.90
21331;DHT22;10824;51.632;4.950;2023-12-07T15:12:19;3.40;99.90
21331;DHT22;10824;51.632;4.950;2023-12-07T15:14:46;3.40;99.90
21331;DHT22;10824;51.632;4.950;2023-12-07T15:17:14;3.40;99.90
21331;DHT22;10824;51.632;4.950;2023-12-07T15:19:41;3.40;99.90
21331;DHT22;10824;51.632;4.950;2023-12-07T15:22:09;3.30;99.90
21331;DHT22;10824;51.632;4.950;2023-12-07T15:24:37;3.30;99.90
21331;DHT22;10824;51.632;4.950;2023-12-07T15:27:06;3.30;99.90
21331;DHT22;10824;51.632;4.950;2023-12-07T15:29:34;3.20;99.90
21331;DHT22;10824;51.632;4.950;2023-12-07T15:32:03;3.20;99.90
21331;DHT22;10824;51.632;4.950;2023-12-07T15:34:31;3.20;99.90
21331;DHT22;10824;51.632;4.950;2023-12-07T15:37:07;3.20;99.90
21331;DHT22;10824;51.632;4.950;2023-12-07T15:39:34;3.10;99.90
21331;DHT22;10824;51.632;4.950;2023-12-07T15:42:01;3.10;99.90
21331;DHT22;10824;51.632;4.950;2023-12-07T15:44:30;3.00;99.90
21331;DHT22;10824;51.632;4.950;2023-12-07T15:46:58;3.00;99.90
21331;DHT22;10824;51.632;4.950;2023-12-07T15:49:26;3.00;99.90
21331;DHT22;10824;51.632;4.950;2023-12-07T15:51:54;3.00;99.90
21331;DHT22;10824;51.632;4.950;2023-12-07T15:54:26;3.00;99.90
21331;DHT22;10824;51.632;4.950;2023-12-07T15:57:05;3.00;99.90
21331;DHT22;10824;51.632;4.950;2023-12-07T15:59:34;2.90;99.90